Time;durP1;ratioP1;P1;durP2;ratioP2;P2;SDS_P1;SDS_P2;PMS_P1;PMS_P2;Temp;Humidity;BMP_temperature;BMP_pressure;BME280_temperature;BME280_humidity;BME280_pressure;Samples;Min_cycle;Max_cycle;Signal;HPM_P1;HPM_P2
2023/08/26 00:01:07;;;;;;;10.95;8.75;;;20.40;99.90;;;;;;4155678;28;20057;-64
2023/08/26 00:03:07;;;;;;;9.88;7.65;;;20.40;99.90;;;;;;4159071;28;20044;-65
2023/08/26 00:05:08;;;;;;;9.77;7.45;;;20.40;99.90;;;;;;4158063;28;20091;-65
2023/08/26 00:07:08;;;;;;;10.80;7.65;;;20.40;99.90;;;;;;4157838;28;20095;-64
2023/08/26 00:09:09;;;;;;;11.27;7.72;;;20.40;99.90;;;;;;4157919;28;20042;-64
2023/08/26 00:11:10;;;;;;;11.68;8.65;;;20.40;99.90;;;;;;4157634;28;21201;-64
2023/08/26 00:13:10;;;;;;;14.80;10.55;;;20.30;99.90;;;;;;4158408;28;20105;-64
2023/08/26 00:15:11;;;;;;;14.40;10.00;;;20.30;99.90;;;;;;4155896;28;20647;-64
2023/08/26 00:17:11;;;;;;;11.90;8.93;;;20.30;99.90;;;;;;4159433;28;20397;-63
2023/08/26 00:19:12;;;;;;;11.40;8.48;;;20.30;99.90;;;;;;4157840;28;20026;-64
2023/08/26 00:21:16;;;;;;;11.93;9.02;;;20.20;99.90;;;;;;4157414;28;20029;-64
2023/08/26 00:23:16;;;;;;;11.88;8.68;;;20.20;99.90;;;;;;4158265;28;20037;-64
2023/08/26 00:25:17;;;;;;;13.02;9.07;;;20.20;99.90;;;;;;4155522;28;20432;-64
2023/08/26 00:27:17;;;;;;;15.45;10.18;;;20.20;99.90;;;;;;4157472;28;20105;-64
2023/08/26 00:29:18;;;;;;;14.02;9.68;;;20.20;99.90;;;;;;4156478;28;20397;-67
2023/08/26 00:31:19;;;;;;;14.55;9.05;;;20.10;99.90;;;;;;4155526;28;20033;-65
2023/08/26 00:33:19;;;;;;;12.35;8.38;;;20.00;99.90;;;;;;4158437;28;20048;-64
2023/08/26 00:35:20;;;;;;;14.35;10.75;;;20.00;99.90;;;;;;4156357;28;20095;-64
2023/08/26 00:37:20;;;;;;;9.95;8.02;;;20.00;99.90;;;;;;4157193;28;20112;-64
2023/08/26 00:39:21;;;;;;;14.35;9.50;;;19.90;99.90;;;;;;4158183;28;20040;-64
2023/08/26 00:41:21;;;;;;;12.48;8.40;;;19.90;99.90;;;;;;4155771;28;20037;-64
2023/08/26 00:43:22;;;;;;;13.27;8.52;;;19.90;99.90;;;;;;4158354;28;20140;-64
2023/08/26 00:45:23;;;;;;;14.20;8.82;;;19.90;99.90;;;;;;4154643;28;20029;-64
2023/08/26 00:47:23;;;;;;;12.85;8.45;;;19.90;99.90;;;;;;4158046;28;20393;-64
2023/08/26 00:49:24;;;;;;;10.25;7.63;;;19.80;99.90;;;;;;4159164;28;20056;-64
2023/08/26 00:51:25;;;;;;;14.63;9.65;;;19.90;99.90;;;;;;4157683;28;20072;-68
2023/08/26 00:53:25;;;;;;;12.35;8.45;;;19.80;99.90;;;;;;4158273;28;20032;-67
2023/08/26 00:55:26;;;;;;;13.73;9.00;;;19.70;99.90;;;;;;4153017;28;20064;-68
2023/08/26 00:57:27;;;;;;;14.60;10.15;;;19.70;99.90;;;;;;4158138;28;20021;-68
2023/08/26 00:59:27;;;;;;;13.45;8.10;;;19.70;99.90;;;;;;4148640;28;20040;-68
2023/08/26 01:01:31;;;;;;;10.48;7.30;;;19.70;99.90;;;;;;4157347;28;20061;-68
2023/08/26 01:03:33;;;;;;;14.95;9.35;;;19.70;99.90;;;;;;4152533;28;20040;-62
2023/08/26 01:05:33;;;;;;;11.60;7.95;;;19.70;99.90;;;;;;4154056;28;20080;-62
2023/08/26 01:07:34;;;;;;;16.27;9.57;;;19.70;99.90;;;;;;4155490;28;20042;-62
2023/08/26 01:09:37;;;;;;;12.82;8.30;;;19.60;99.90;;;;;;4155860;28;20080;-61
2023/08/26 01:11:57;;;;;;;10.18;7.90;;;19.70;99.90;;;;;;4157567;28;20042;-61
2023/08/26 01:14:16;;;;;;;17.30;10.65;;;19.70;99.90;;;;;;4157721;28;20037;-62
2023/08/26 01:16:20;;;;;;;11.85;8.48;;;19.60;99.90;;;;;;4155783;28;20029;-62
2023/08/26 01:18:21;;;;;;;13.38;9.60;;;19.60;99.90;;;;;;4153639;28;20075;-62
2023/08/26 01:20:24;;;;;;;18.48;11.05;;;19.60;99.90;;;;;;4158043;28;20030;-62
2023/08/26 01:22:27;;;;;;;14.70;10.93;;;19.50;99.90;;;;;;4156536;28;20392;-62
2023/08/26 01:24:27;;;;;;;;;;;19.50;99.90;;;;;;4157255;28;20037;-62
2023/08/26 01:26:28;;;;;;;18.85;10.15;;;19.30;99.90;;;;;;4155115;28;20423;-62
2023/08/26 01:28:28;;;;;;;10.77;7.32;;;19.10;99.90;;;;;;4158592;28;20048;-62
2023/08/26 01:30:30;;;;;;;15.18;6.78;;;19.00;99.90;;;;;;4155483;28;20606;-61
2023/08/26 01:33:02;;;;;;;9.15;5.95;;;18.90;99.90;;;;;;4155613;28;20033;-62
2023/08/26 01:35:08;;;;;;;8.70;5.43;;;18.80;99.90;;;;;;4160126;28;20496;-65
2023/08/26 01:37:11;;;;;;;8.60;4.80;;;18.70;99.90;;;;;;4161751;28;20268;-63
2023/08/26 01:39:16;;;;;;;8.60;4.78;;;18.60;99.90;;;;;;4162201;28;20033;-62
2023/08/26 01:41:19;;;;;;;8.88;4.13;;;18.50;99.90;;;;;;4157732;28;20113;-62
2023/08/26 01:43:21;;;;;;;12.82;4.72;;;18.40;99.90;;;;;;4161520;28;20072;-61
2023/08/26 01:45:22;;;;;;;5.65;3.03;;;18.30;99.90;;;;;;4162875;28;20404;-62
2023/08/26 01:47:22;;;;;;;6.78;3.05;;;18.30;99.90;;;;;;4162646;28;20025;-62
2023/08/26 01:49:23;;;;;;;5.45;2.95;;;18.30;99.90;;;;;;4161769;28;20041;-62
2023/08/26 01:51:24;;;;;;;5.00;2.67;;;18.20;99.90;;;;;;4162318;28;20370;-61
2023/08/26 01:53:24;;;;;;;4.13;2.50;;;18.10;99.90;;;;;;4159987;28;20124;-61
2023/08/26 01:55:25;;;;;;;7.03;2.22;;;18.10;99.90;;;;;;4156780;28;20117;-62
2023/08/26 01:57:26;;;;;;;7.15;2.03;;;18.10;99.90;;;;;;4161215;28;20394;-61
2023/08/26 01:59:26;;;;;;;5.72;2.08;;;18.00;99.90;;;;;;4160181;28;20037;-61
2023/08/26 02:01:27;;;;;;;4.18;1.90;;;17.90;99.90;;;;;;4160965;28;20029;-61
2023/08/26 02:03:27;;;;;;;4.72;1.75;;;17.90;99.90;;;;;;4160939;28;20044;-61
2023/08/26 02:05:28;;;;;;;3.78;1.88;;;17.80;99.90;;;;;;4163469;28;20084;-61
2023/08/26 02:07:28;;;;;;;4.18;1.80;;;17.60;99.90;;;;;;4158886;28;20037;-61
2023/08/26 02:09:29;;;;;;;4.47;1.67;;;17.60;99.90;;;;;;4162603;28;20037;-61
2023/08/26 02:11:30;;;;;;;3.00;1.40;;;17.60;99.90;;;;;;4161739;28;20535;-68
2023/08/26 02:13:30;;;;;;;7.80;1.88;;;17.60;99.90;;;;;;4161933;28;20037;-65
2023/08/26 02:15:33;;;;;;;1.92;1.10;;;17.50;99.90;;;;;;4162178;28;20037;-64
2023/08/26 02:17:34;;;;;;;3.38;1.52;;;17.40;99.90;;;;;;4162684;28;20036;-65
2023/08/26 02:19:35;;;;;;;3.90;1.35;;;17.40;99.90;;;;;;4162232;28;20385;-65
2023/08/26 02:21:35;;;;;;;3.65;1.42;;;17.40;99.90;;;;;;4160219;28;20030;-64
2023/08/26 02:23:36;;;;;;;5.80;1.73;;;17.30;99.90;;;;;;4161345;28;20026;-64
2023/08/26 02:25:38;;;;;;;3.50;1.67;;;17.30;99.90;;;;;;4161205;28;20056;-64
2023/08/26 02:27:40;;;;;;;4.45;1.50;;;17.20;99.90;;;;;;4160671;28;20056;-65
2023/08/26 02:29:41;;;;;;;3.67;1.35;;;17.20;99.90;;;;;;4160530;28;20095;-65
2023/08/26 02:31:41;;;;;;;5.13;1.80;;;17.10;99.90;;;;;;4160296;28;20038;-65
2023/08/26 02:33:42;;;;;;;2.35;0.93;;;17.10;99.90;;;;;;4162165;28;20061;-65
2023/08/26 02:35:46;;;;;;;5.50;1.70;;;17.20;99.90;;;;;;4160779;28;20458;-65
2023/08/26 02:37:47;;;;;;;4.93;1.42;;;17.10;99.90;;;;;;4161123;28;20124;-64
2023/08/26 02:39:48;;;;;;;5.18;1.88;;;17.10;99.90;;;;;;4163220;28;20049;-65
2023/08/26 02:41:48;;;;;;;5.93;1.65;;;17.10;99.90;;;;;;4159037;28;20037;-64
2023/08/26 02:43:49;;;;;;;3.10;1.27;;;17.00;99.90;;;;;;4159679;28;20034;-64
2023/08/26 02:45:53;;;;;;;3.90;1.70;;;17.00;99.90;;;;;;4158190;28;20493;-64
2023/08/26 02:47:54;;;;;;;3.65;1.60;;;17.00;99.90;;;;;;4159274;28;20370;-64
2023/08/26 02:49:54;;;;;;;3.92;1.35;;;17.10;99.90;;;;;;4162177;28;20091;-64
2023/08/26 02:51:55;;;;;;;4.07;1.90;;;16.90;99.90;;;;;;4154742;28;20037;-64
2023/08/26 02:53:55;;;;;;;4.85;1.48;;;16.90;99.90;;;;;;4166125;28;20034;-64
2023/08/26 02:55:56;;;;;;;3.50;1.50;;;17.00;99.90;;;;;;4160226;28;20558;-64
2023/08/26 02:57:57;;;;;;;2.97;1.40;;;17.00;99.90;;;;;;4161757;28;20057;-64
2023/08/26 02:59:57;;;;;;;2.97;1.40;;;17.00;99.90;;;;;;4159463;28;20104;-65
2023/08/26 03:02:09;;;;;;;3.13;1.40;;;17.00;99.90;;;;;;4161682;28;20033;-64
2023/08/26 03:04:09;;;;;;;3.00;1.30;;;17.00;99.90;;;;;;4157911;28;20506;-64
2023/08/26 03:06:11;;;;;;;3.83;1.40;;;16.90;99.90;;;;;;4158312;28;20030;-66
2023/08/26 03:08:12;;;;;;;3.67;1.67;;;16.90;99.90;;;;;;4177329;28;20037;-65
2023/08/26 03:10:12;;;;;;;5.82;1.58;;;16.90;99.90;;;;;;4159177;28;20036;-64
2023/08/26 03:12:13;;;;;;;2.70;1.48;;;16.90;99.90;;;;;;4159891;28;20109;-64
2023/08/26 03:14:14;;;;;;;3.33;1.60;;;16.90;99.90;;;;;;4159172;28;20080;-64
2023/08/26 03:16:15;;;;;;;7.07;1.35;;;16.90;99.90;;;;;;4157474;28;20095;-64
2023/08/26 03:18:15;;;;;;;3.33;1.40;;;16.90;99.90;;;;;;4160177;28;20028;-64
2023/08/26 03:20:16;;;;;;;2.40;1.10;;;16.90;99.90;;;;;;4157767;28;20034;-64
2023/08/26 03:22:16;;;;;;;2.05;1.20;;;16.80;99.90;;;;;;4161824;28;20381;-68
2023/08/26 03:24:17;;;;;;;3.47;1.52;;;16.80;99.90;;;;;;4159223;28;20111;-68
2023/08/26 03:26:18;;;;;;;4.07;1.48;;;16.80;99.90;;;;;;4161295;28;20026;-68
2023/08/26 03:28:19;;;;;;;1.50;1.10;;;16.90;99.90;;;;;;4160886;28;20044;-67
2023/08/26 03:30:19;;;;;;;3.38;1.52;;;16.80;99.90;;;;;;4157221;28;20033;-68
2023/08/26 03:32:20;;;;;;;4.07;1.13;;;16.80;99.90;;;;;;4161165;28;20038;-68
2023/08/26 03:34:21;;;;;;;2.13;1.23;;;16.80;99.90;;;;;;4161036;28;20030;-68
2023/08/26 03:36:21;;;;;;;6.40;1.92;;;16.90;99.90;;;;;;4156371;28;20052;-68
2023/08/26 03:38:22;;;;;;;2.90;1.48;;;16.80;99.90;;;;;;4160238;28;20370;-68
2023/08/26 03:40:22;;;;;;;1.95;1.33;;;16.80;99.90;;;;;;4159870;28;20037;-68
2023/08/26 03:42:23;;;;;;;3.85;1.40;;;16.80;99.90;;;;;;4155160;28;20025;-68
2023/08/26 03:44:24;;;;;;;4.30;1.80;;;16.80;99.90;;;;;;4158123;28;20485;-68
2023/08/26 03:46:26;;;;;;;1.98;0.95;;;16.80;99.90;;;;;;4159057;28;20924;-68
2023/08/26 03:48:27;;;;;;;2.35;1.25;;;16.80;99.90;;;;;;4159409;28;20037;-68
2023/08/26 03:50:28;;;;;;;1.27;1.10;;;16.70;99.90;;;;;;4157515;28;20128;-67
2023/08/26 03:52:28;;;;;;;1.52;1.00;;;16.70;99.90;;;;;;4157691;28;20064;-68
2023/08/26 03:54:29;;;;;;;3.30;1.65;;;16.80;99.90;;;;;;4152897;28;20552;-68
2023/08/26 03:56:29;;;;;;;3.25;1.63;;;16.70;99.90;;;;;;4158047;28;20033;-68
2023/08/26 03:58:30;;;;;;;3.88;1.58;;;16.70;99.90;;;;;;4158434;28;20589;-68
2023/08/26 04:00:31;;;;;;;6.22;1.88;;;16.60;99.90;;;;;;4121636;28;20051;-68
2023/08/26 04:02:32;;;;;;;4.15;1.73;;;16.60;99.90;;;;;;4143917;28;20029;-68
2023/08/26 04:04:32;;;;;;;2.92;1.70;;;16.60;99.90;;;;;;4159740;28;20103;-69
2023/08/26 04:06:33;;;;;;;6.07;2.08;;;16.50;99.90;;;;;;4154705;28;20091;-68
2023/08/26 04:08:34;;;;;;;4.78;2.20;;;16.50;99.90;;;;;;4138315;28;20112;-68
2023/08/26 04:10:34;;;;;;;5.43;2.15;;;16.40;99.90;;;;;;4153356;28;20482;-68
2023/08/26 04:12:35;;;;;;;3.30;1.67;;;16.40;99.90;;;;;;4157572;28;20037;-67
2023/08/26 04:14:35;;;;;;;3.88;1.70;;;16.40;99.90;;;;;;4157967;28;20063;-68
2023/08/26 04:16:36;;;;;;;6.82;2.03;;;16.30;99.90;;;;;;4155971;28;20080;-67
2023/08/26 04:18:37;;;;;;;7.30;2.05;;;16.30;99.90;;;;;;4154548;28;20022;-68
2023/08/26 04:20:37;;;;;;;3.58;1.85;;;16.40;99.90;;;;;;4156747;28;20036;-69
2023/08/26 04:22:38;;;;;;;6.97;1.80;;;16.40;99.90;;;;;;4158322;28;20061;-68
2023/08/26 04:24:38;;;;;;;5.93;2.63;;;16.30;99.90;;;;;;4158116;28;20436;-68
2023/08/26 04:26:39;;;;;;;5.90;1.90;;;16.30;99.90;;;;;;4155819;28;20061;-67
2023/08/26 04:28:40;;;;;;;4.90;2.13;;;16.30;99.90;;;;;;4158403;28;20344;-68
2023/08/26 04:30:42;;;;;;;5.95;2.17;;;16.20;99.90;;;;;;4156344;28;20437;-68
2023/08/26 04:32:43;;;;;;;5.70;2.38;;;16.30;99.90;;;;;;4158962;28;20048;-67
2023/08/26 04:34:45;;;;;;;3.45;2.00;;;16.30;99.90;;;;;;4156031;28;20037;-67
2023/08/26 04:36:45;;;;;;;4.68;2.13;;;16.20;99.90;;;;;;4153918;28;20033;-67
2023/08/26 04:38:46;;;;;;;4.85;2.00;;;16.20;99.90;;;;;;4158570;28;20045;-67
2023/08/26 04:40:47;;;;;;;3.47;1.63;;;16.20;99.90;;;;;;4158365;28;20037;-67
2023/08/26 04:42:47;;;;;;;3.63;1.90;;;16.30;99.90;;;;;;4158911;28;20111;-67
2023/08/26 04:44:48;;;;;;;3.03;1.73;;;16.20;99.90;;;;;;4159940;28;20576;-67
2023/08/26 04:46:49;;;;;;;4.55;2.20;;;16.30;99.90;;;;;;4157969;28;20116;-67
2023/08/26 04:48:49;;;;;;;6.93;2.63;;;16.30;99.90;;;;;;4160933;28;20033;-67
2023/08/26 04:50:50;;;;;;;7.40;2.10;;;16.30;99.90;;;;;;4155165;28;20098;-68
2023/08/26 04:52:51;;;;;;;4.75;2.00;;;16.20;99.90;;;;;;4159889;28;20493;-68
2023/08/26 04:54:51;;;;;;;7.70;2.80;;;16.20;99.90;;;;;;4160440;28;20034;-67
2023/08/26 04:56:52;;;;;;;5.38;2.35;;;16.20;99.90;;;;;;4157064;28;20037;-68
2023/08/26 04:58:52;;;;;;;5.13;2.20;;;16.10;99.90;;;;;;4160792;28;20036;-68
2023/08/26 05:00:53;;;;;;;5.28;2.28;;;16.20;99.90;;;;;;4158804;28;20587;-68
2023/08/26 05:02:54;;;;;;;4.68;2.65;;;16.20;99.90;;;;;;4156995;28;20037;-68
2023/08/26 05:04:54;;;;;;;6.25;2.28;;;16.20;99.90;;;;;;4157535;28;20052;-68
2023/08/26 05:06:55;;;;;;;4.95;2.28;;;16.20;99.90;;;;;;4159946;28;20489;-68
2023/08/26 05:08:57;;;;;;;6.68;2.17;;;16.30;99.90;;;;;;4159379;28;20235;-68
2023/08/26 05:10:57;;;;;;;3.33;1.65;;;16.30;99.90;;;;;;4154040;28;20378;-68
2023/08/26 05:12:58;;;;;;;4.13;2.03;;;16.30;99.90;;;;;;4163023;28;20033;-68
2023/08/26 05:14:58;;;;;;;5.32;2.03;;;16.30;99.90;;;;;;4158124;28;20057;-68
2023/08/26 05:16:59;;;;;;;4.43;1.85;;;16.40;99.90;;;;;;4162667;28;20116;-68
2023/08/26 05:18:59;;;;;;;4.10;1.85;;;16.40;99.90;;;;;;4163536;28;20473;-68
2023/08/26 05:21:00;;;;;;;6.57;2.20;;;16.40;99.90;;;;;;4160564;28;20043;-68
2023/08/26 05:23:01;;;;;;;4.93;1.85;;;16.40;99.90;;;;;;4161865;28;20022;-68
2023/08/26 05:25:02;;;;;;;3.13;1.70;;;16.40;99.90;;;;;;4161326;28;20055;-68
2023/08/26 05:27:03;;;;;;;3.70;1.80;;;16.40;99.90;;;;;;4150809;28;20037;-68
2023/08/26 05:29:04;;;;;;;5.25;2.30;;;16.40;99.90;;;;;;4156986;28;20843;-68
2023/08/26 05:31:04;;;;;;;3.88;2.00;;;16.30;99.90;;;;;;4158180;28;20111;-68
2023/08/26 05:33:05;;;;;;;4.22;1.63;;;16.40;99.90;;;;;;4159956;28;20031;-68
2023/08/26 05:35:06;;;;;;;6.78;2.03;;;16.30;99.90;;;;;;4159391;28;20025;-69
2023/08/26 05:37:07;;;;;;;4.35;2.13;;;16.30;99.90;;;;;;4154590;28;20130;-68
2023/08/26 05:39:07;;;;;;;6.50;2.13;;;16.30;99.90;;;;;;4160044;28;20048;-68
2023/08/26 05:41:08;;;;;;;3.60;1.70;;;16.30;99.90;;;;;;4157271;28;20477;-64
2023/08/26 05:43:09;;;;;;;3.55;1.90;;;16.30;99.90;;;;;;4160913;28;20025;-67
2023/08/26 05:45:10;;;;;;;3.97;1.83;;;16.40;99.90;;;;;;4154310;28;20042;-69
2023/08/26 05:47:10;;;;;;;4.70;1.60;;;16.40;99.90;;;;;;4153798;28;20049;-67
2023/08/26 05:49:11;;;;;;;5.78;2.15;;;16.30;99.90;;;;;;4145127;28;20037;-66
2023/08/26 05:51:11;;;;;;;4.72;1.70;;;16.30;99.90;;;;;;4156640;28;20029;-61
2023/08/26 05:53:12;;;;;;;3.03;1.50;;;16.40;99.90;;;;;;4158496;28;20545;-64
2023/08/26 05:55:13;;;;;;;5.57;2.03;;;16.40;99.90;;;;;;4153814;28;20032;-62
2023/08/26 05:57:13;;;;;;;5.32;1.90;;;16.40;99.90;;;;;;4160217;28;20033;-62
2023/08/26 05:59:14;;;;;;;3.67;1.73;;;16.40;99.90;;;;;;4160840;28;20033;-62
2023/08/26 06:01:14;;;;;;;8.23;2.10;;;16.40;99.90;;;;;;4158829;28;20063;-62
2023/08/26 06:03:15;;;;;;;6.18;1.60;;;16.50;99.90;;;;;;4160130;28;20109;-62
2023/08/26 06:05:16;;;;;;;4.03;1.70;;;16.50;99.90;;;;;;4159358;28;20045;-61
2023/08/26 06:07:18;;;;;;;9.82;1.60;;;16.50;99.90;;;;;;4160753;28;20026;-62
2023/08/26 06:09:18;;;;;;;3.72;1.20;;;16.50;99.90;;;;;;4160547;28;20396;-62
2023/08/26 06:11:19;;;;;;;2.63;1.35;;;16.50;99.90;;;;;;4158210;28;20026;-62
2023/08/26 06:13:19;;;;;;;2.38;1.15;;;16.50;99.90;;;;;;4161101;28;20053;-62
2023/08/26 06:15:20;;;;;;;4.22;1.30;;;16.60;99.90;;;;;;4160419;28;20040;-62
2023/08/26 06:17:21;;;;;;;2.20;1.20;;;16.60;99.90;;;;;;4158784;28;20029;-62
2023/08/26 06:19:21;;;;;;;5.82;1.65;;;16.70;99.90;;;;;;4161713;28;20030;-62
2023/08/26 06:21:22;;;;;;;4.03;1.60;;;16.60;99.90;;;;;;4159719;28;20482;-62
2023/08/26 06:23:22;;;;;;;7.93;1.85;;;16.60;99.90;;;;;;4162576;28;20033;-61
2023/08/26 06:25:23;;;;;;;5.35;1.33;;;16.70;99.90;;;;;;4159648;28;20642;-62
2023/08/26 06:27:25;;;;;;;4.88;1.33;;;16.70;99.90;;;;;;4161741;28;20379;-62
2023/08/26 06:29:25;;;;;;;4.80;1.30;;;16.80;99.90;;;;;;4161825;28;20029;-62
2023/08/26 06:31:26;;;;;;;3.40;1.30;;;16.80;99.90;;;;;;4158748;28;20326;-62
2023/08/26 06:33:27;;;;;;;3.80;1.00;;;16.80;99.90;;;;;;4156347;28;20033;-62
2023/08/26 06:35:28;;;;;;;2.22;1.10;;;16.90;99.90;;;;;;4158543;28;20037;-62
2023/08/26 06:37:28;;;;;;;5.20;1.23;;;17.00;99.90;;;;;;4159401;28;20042;-62
2023/08/26 06:39:29;;;;;;;2.90;1.10;;;17.00;99.90;;;;;;4160423;28;20049;-62
2023/08/26 06:41:32;;;;;;;2.92;1.38;;;17.20;99.90;;;;;;4159861;28;20511;-62
2023/08/26 06:43:33;;;;;;;3.22;1.10;;;17.40;99.90;;;;;;4162098;28;20091;-62
2023/08/26 06:45:34;;;;;;;1.92;1.10;;;17.70;99.90;;;;;;4157674;28;20489;-62
2023/08/26 06:47:34;;;;;;;3.72;1.10;;;18.00;99.90;;;;;;4161621;28;20033;-62
2023/08/26 06:49:35;;;;;;;1.55;0.85;;;18.30;99.90;;;;;;4160152;28;20124;-62
2023/08/26 06:51:36;;;;;;;3.38;1.23;;;18.60;99.90;;;;;;4161796;28;20036;-62
2023/08/26 06:53:36;;;;;;;3.30;0.98;;;18.90;99.90;;;;;;4158930;28;20053;-62
2023/08/26 06:55:37;;;;;;;2.95;1.30;;;19.20;99.90;;;;;;4159088;28;21595;-62
2023/08/26 06:57:38;;;;;;;4.50;1.05;;;19.50;99.90;;;;;;4161601;28;20049;-62
2023/08/26 06:59:38;;;;;;;3.47;1.23;;;19.70;99.90;;;;;;4159703;28;20560;-62
2023/08/26 07:01:39;;;;;;;3.75;1.00;;;19.90;99.90;;;;;;4159467;28;20033;-63
2023/08/26 07:03:40;;;;;;;2.95;1.13;;;20.30;99.90;;;;;;4161157;28;20052;-63
2023/08/26 07:05:45;;;;;;;3.00;1.10;;;20.60;99.90;;;;;;4156638;28;20505;-62
2023/08/26 07:07:45;;;;;;;2.65;0.90;;;20.70;99.90;;;;;;4155647;28;20041;-63
2023/08/26 07:09:46;;;;;;;1.90;1.10;;;20.80;99.90;;;;;;4158891;28;20041;-64
2023/08/26 07:11:47;;;;;;;2.17;1.02;;;21.00;99.90;;;;;;4161016;28;20519;-69
2023/08/26 07:13:47;;;;;;;3.72;1.30;;;21.00;99.90;;;;;;4161679;28;20033;-68
2023/08/26 07:15:48;;;;;;;4.55;1.42;;;21.20;99.90;;;;;;4161947;28;20396;-68
2023/08/26 07:17:49;;;;;;;1.95;0.80;;;21.30;99.90;;;;;;4160949;28;20042;-68
2023/08/26 07:19:50;;;;;;;2.22;0.90;;;21.40;99.90;;;;;;4161688;28;20041;-68
2023/08/26 07:21:51;;;;;;;2.58;1.02;;;21.50;99.90;;;;;;4159210;28;20425;-68
2023/08/26 07:23:51;;;;;;;5.07;1.00;;;21.50;99.90;;;;;;4161332;28;20038;-68
2023/08/26 07:25:52;;;;;;;3.50;0.85;;;21.60;99.90;;;;;;4158827;28;20041;-68
2023/08/26 07:27:53;;;;;;;4.25;0.98;;;21.60;99.90;;;;;;4160066;28;20041;-68
2023/08/26 07:29:54;;;;;;;2.10;0.80;;;21.70;99.90;;;;;;4160760;28;20168;-68
2023/08/26 07:31:54;;;;;;;1.27;1.00;;;21.80;99.90;;;;;;4158652;28;20029;-68
2023/08/26 07:33:55;;;;;;;1.55;0.70;;;21.80;99.90;;;;;;4161314;28;20121;-68
2023/08/26 07:36:07;;;;;;;2.08;0.80;;;21.80;99.90;;;;;;4159113;28;20515;-68
2023/08/26 07:38:08;;;;;;;1.90;0.70;;;21.80;99.90;;;;;;4158543;28;20144;-67
2023/08/26 07:40:14;;;;;;;1.77;0.85;;;21.90;99.90;;;;;;4157901;28;20100;-68
2023/08/26 07:42:14;;;;;;;4.03;1.40;;;21.80;99.90;;;;;;4157245;28;20037;-68
2023/08/26 07:44:15;;;;;;;0.85;0.60;;;21.70;99.90;;;;;;4156700;28;20398;-68
2023/08/26 07:46:18;;;;;;;1.70;0.80;;;21.80;99.90;;;;;;4157772;28;20034;-68
2023/08/26 07:48:19;;;;;;;3.47;1.50;;;21.70;99.90;;;;;;4158324;28;20053;-69
2023/08/26 07:50:19;;;;;;;2.92;0.90;;;21.70;99.90;;;;;;4172046;28;20044;-68
2023/08/26 07:52:20;;;;;;;2.58;0.90;;;21.70;99.90;;;;;;4156277;28;20036;-68
2023/08/26 07:54:21;;;;;;;2.60;1.20;;;21.70;99.90;;;;;;4158508;28;20033;-68
2023/08/26 07:56:21;;;;;;;2.90;0.80;;;21.50;99.90;;;;;;4157320;28;20034;-67
2023/08/26 07:58:22;;;;;;;3.33;1.08;;;21.50;99.90;;;;;;4157166;28;20030;-68
2023/08/26 08:00:22;;;;;;;3.20;0.90;;;21.50;99.90;;;;;;4157478;28;20041;-68
2023/08/26 08:02:23;;;;;;;5.43;1.10;;;21.50;99.90;;;;;;4154929;28;20092;-67
2023/08/26 08:04:23;;;;;;;4.03;0.70;;;21.50;99.90;;;;;;4157012;28;20045;-68
2023/08/26 08:06:24;;;;;;;1.70;0.88;;;21.40;99.90;;;;;;4157455;28;20070;-68
2023/08/26 08:08:25;;;;;;;4.20;1.20;;;21.40;99.90;;;;;;4157429;28;20026;-67
2023/08/26 08:10:25;;;;;;;3.60;1.10;;;21.30;99.90;;;;;;4157854;28;20663;-67
2023/08/26 08:12:26;;;;;;;2.03;0.68;;;21.20;99.90;;;;;;4155923;28;20482;-68
2023/08/26 08:14:26;;;;;;;2.58;1.13;;;21.20;99.90;;;;;;4157365;28;20116;-67
2023/08/26 08:16:27;;;;;;;4.57;1.00;;;21.20;99.90;;;;;;4156754;28;20045;-68
2023/08/26 08:18:28;;;;;;;4.35;1.15;;;21.20;99.90;;;;;;4158696;28;20482;-68
2023/08/26 08:20:31;;;;;;;7.50;1.08;;;21.20;99.90;;;;;;4168978;28;20033;-62
2023/08/26 08:22:37;;;;;;;3.60;1.25;;;21.30;99.90;;;;;;4154545;28;20053;-62
2023/08/26 08:24:38;;;;;;;2.42;1.10;;;21.30;99.90;;;;;;4157154;28;20072;-63
2023/08/26 08:26:43;;;;;;;3.03;1.00;;;21.40;99.90;;;;;;4157277;28;20045;-62
2023/08/26 08:28:43;;;;;;;1.85;0.75;;;21.40;99.90;;;;;;4151645;28;20101;-62
2023/08/26 08:30:44;;;;;;;2.60;0.80;;;21.50;99.90;;;;;;4159035;28;20478;-66
2023/08/26 08:32:44;;;;;;;3.03;1.13;;;21.60;99.90;;;;;;4160614;28;20034;-68
2023/08/26 08:34:45;;;;;;;1.83;0.75;;;21.60;99.90;;;;;;4161043;28;20133;-68
2023/08/26 08:36:46;;;;;;;3.72;1.20;;;21.50;99.90;;;;;;4155374;28;20120;-67
2023/08/26 08:38:46;;;;;;;1.65;0.63;;;21.50;99.90;;;;;;4158080;28;20037;-67
2023/08/26 08:40:47;;;;;;;2.75;1.13;;;21.50;99.90;;;;;;4156930;28;20025;-62
2023/08/26 08:42:50;;;;;;;1.85;0.80;;;21.60;99.90;;;;;;4160683;28;20503;-62
2023/08/26 08:44:51;;;;;;;2.28;0.60;;;21.60;99.90;;;;;;4163873;28;20034;-62
2023/08/26 08:46:52;;;;;;;1.48;0.70;;;21.60;99.90;;;;;;4161853;28;20064;-61
2023/08/26 08:48:53;;;;;;;4.70;1.02;;;21.70;99.90;;;;;;4165135;28;20038;-62
2023/08/26 08:50:56;;;;;;;2.53;0.60;;;21.80;99.90;;;;;;4157863;28;20071;-61
2023/08/26 08:52:58;;;;;;;1.48;0.65;;;21.80;99.90;;;;;;4160999;28;20037;-61
2023/08/26 08:54:59;;;;;;;3.85;1.08;;;21.80;99.90;;;;;;4165069;28;20037;-61
2023/08/26 08:57:01;;;;;;;2.72;0.80;;;21.80;99.90;;;;;;4164542;28;20434;-62
2023/08/26 08:59:02;;;;;;;3.10;1.27;;;21.80;99.90;;;;;;4165272;28;20064;-62
2023/08/26 09:01:04;;;;;;;2.28;0.82;;;21.80;99.90;;;;;;4164364;28;20473;-61
2023/08/26 09:03:08;;;;;;;1.52;0.75;;;21.70;99.90;;;;;;4163515;28;20528;-61
2023/08/26 09:05:09;;;;;;;2.50;0.82;;;21.80;99.90;;;;;;4163106;28;20190;-62
2023/08/26 09:07:11;;;;;;;3.05;1.17;;;21.70;99.90;;;;;;4165337;28;20037;-61
2023/08/26 09:09:14;;;;;;;5.15;0.95;;;21.80;99.90;;;;;;4165113;28;20056;-62
2023/08/26 09:11:14;;;;;;;;;;;21.70;99.90;;;;;;4165329;28;20477;-61
2023/08/26 09:13:15;;;;;;;3.53;0.98;;;21.70;99.90;;;;;;4164040;28;19909;-62
2023/08/26 09:15:15;;;;;;;1.80;1.05;;;21.70;99.90;;;;;;4164097;28;20121;-63
2023/08/26 09:17:17;;;;;;;2.80;1.05;;;21.70;99.90;;;;;;4161799;28;20041;-62
2023/08/26 09:19:18;;;;;;;2.55;0.98;;;21.60;99.90;;;;;;4184983;28;20047;-61
2023/08/26 09:21:19;;;;;;;4.85;1.02;;;21.70;99.90;;;;;;4156833;28;20049;-62
2023/08/26 09:23:19;;;;;;;2.40;1.10;;;21.60;99.90;;;;;;4157662;28;20034;-65
2023/08/26 09:25:20;;;;;;;1.20;0.65;;;21.70;99.90;;;;;;4156029;28;20529;-62
2023/08/26 09:27:20;;;;;;;1.33;0.82;;;21.70;99.90;;;;;;4160208;28;20052;-62
2023/08/26 09:29:21;;;;;;;2.67;1.20;;;21.80;99.90;;;;;;4159565;28;20037;-61
2023/08/26 09:31:21;;;;;;;2.33;0.77;;;21.80;99.90;;;;;;4158598;28;20056;-62
2023/08/26 09:33:22;;;;;;;1.58;0.70;;;21.80;99.90;;;;;;4158126;28;20040;-62
2023/08/26 09:35:23;;;;;;;1.92;0.95;;;21.80;99.90;;;;;;4159409;28;20033;-62
2023/08/26 09:37:29;;;;;;;3.65;1.38;;;21.90;99.90;;;;;;4157829;28;20037;-62
2023/08/26 09:39:30;;;;;;;2.30;0.95;;;21.90;99.90;;;;;;4159064;28;20030;-62
2023/08/26 09:41:31;;;;;;;1.83;0.88;;;22.00;99.90;;;;;;4158333;28;20095;-61
2023/08/26 09:43:31;;;;;;;3.20;1.10;;;22.00;99.90;;;;;;4154498;28;20481;-61
2023/08/26 09:45:41;;;;;;;1.70;0.70;;;22.00;99.90;;;;;;4159353;28;20574;-61
2023/08/26 09:47:42;;;;;;;1.92;0.80;;;22.10;99.90;;;;;;4159287;28;20054;-61
2023/08/26 09:49:48;;;;;;;2.90;1.15;;;22.10;99.90;;;;;;4160384;28;20117;-62
2023/08/26 09:51:51;;;;;;;1.30;0.70;;;22.10;99.90;;;;;;4157773;28;20083;-62
2023/08/26 09:53:56;;;;;;;5.28;1.30;;;22.10;99.90;;;;;;4157257;28;20543;-61
2023/08/26 09:55:58;;;;;;;1.88;0.70;;;22.10;99.90;;;;;;4148837;28;20037;-62
2023/08/26 09:57:59;;;;;;;2.27;0.93;;;22.10;99.90;;;;;;4159341;28;20123;-62
2023/08/26 09:59:59;;;;;;;2.38;1.05;;;22.20;99.90;;;;;;4161816;28;20288;-66
2023/08/26 10:02:03;;;;;;;1.95;0.80;;;22.10;99.90;;;;;;4157491;28;20033;-66
2023/08/26 10:04:15;;;;;;;3.90;1.00;;;22.20;99.90;;;;;;4156318;28;20429;-66
2023/08/26 10:06:17;;;;;;;5.63;1.60;;;22.20;99.90;;;;;;4158532;28;20037;-66
2023/08/26 10:08:20;;;;;;;6.03;3.00;;;22.20;99.90;;;;;;4154367;28;21285;-67
2023/08/26 10:10:34;;;;;;;4.00;2.30;;;22.20;99.90;;;;;;4154523;28;20029;-62
2023/08/26 10:12:39;;;;;;;4.20;0.85;;;22.20;99.90;;;;;;4154073;28;20518;-76
2023/08/26 10:14:42;;;;;;;0.98;0.50;;;22.10;99.90;;;;;;4155682;28;20037;-75
2023/08/26 10:16:45;;;;;;;1.80;0.88;;;22.30;99.90;;;;;;4154556;28;20386;-74
2023/08/26 10:18:53;;;;;;;1.10;0.70;;;22.30;99.90;;;;;;4155170;28;20484;-75
2023/08/26 10:20:55;;;;;;;2.70;0.90;;;22.40;99.90;;;;;;4152250;28;20045;-77
2023/08/26 10:22:56;;;;;;;4.03;1.08;;;22.40;99.90;;;;;;4154397;28;20030;-76
2023/08/26 10:24:57;;;;;;;2.03;0.70;;;22.40;99.90;;;;;;4152969;28;20367;-75
2023/08/26 10:26:57;;;;;;;1.83;0.55;;;22.50;99.90;;;;;;4153741;28;20096;-76
2023/08/26 10:28:59;;;;;;;1.85;0.55;;;22.50;99.90;;;;;;4156196;28;20037;-76
2023/08/26 10:31:00;;;;;;;2.50;0.75;;;22.50;99.90;;;;;;4151405;28;20576;-74